createdAt,value
2019-03-21T00:00:17.113Z,84.82
2019-03-21T00:01:17.091Z,85.11
2019-03-21T00:02:17.078Z,84.63
2019-03-21T00:03:17.087Z,85.01
2019-03-21T00:04:17.070Z,84.72
2019-03-21T00:05:17.056Z,84.82
2019-03-21T00:06:17.047Z,85.01
2019-03-21T00:07:17.052Z,85.58
2019-03-21T00:08:17.050Z,85.87
2019-03-21T00:09:17.022Z,85.68
2019-03-21T00:10:17.008Z,85.21
2019-03-21T00:11:17.000Z,85.58
2019-03-21T00:12:17.009Z,85.87
2019-03-21T00:13:16.992Z,85.49
2019-03-21T00:14:16.972Z,86.16
2019-03-21T00:15:16.981Z,86.44
2019-03-21T00:16:16.954Z,86.25
2019-03-21T00:17:16.961Z,86.44
2019-03-21T00:18:16.935Z,86.25
2019-03-21T00:19:16.949Z,87.11
2019-03-21T00:20:16.924Z,87.02
2019-03-21T00:21:16.913Z,86.82
2019-03-21T00:22:16.898Z,86.63
2019-03-21T00:23:16.923Z,86.92
2019-03-21T00:24:16.897Z,86.82
2019-03-21T00:25:16.879Z,86.82
2019-03-21T00:26:16.862Z,87.11
2019-03-21T00:27:16.855Z,87.11
2019-03-21T00:28:16.862Z,87.49
2019-03-21T00:29:16.839Z,87.87
2019-03-21T00:30:16.849Z,87.68
2019-03-21T00:31:16.820Z,87.68
2019-03-21T00:32:16.828Z,87.68
2019-03-21T00:33:16.834Z,87.97
2019-03-21T00:34:16.808Z,87.87
2019-03-21T00:35:16.780Z,87.97
2019-03-21T00:36:16.789Z,88.35
2019-03-21T00:37:16.776Z,88.07
2019-03-21T00:38:16.776Z,87.97
2019-03-21T00:39:16.748Z,88.07
2019-03-21T00:40:16.755Z,88.73
2019-03-21T00:41:16.734Z,88.54
2019-03-21T00:42:16.720Z,88.54
2019-03-21T00:43:16.711Z,88.26
2019-03-21T00:44:20.948Z,88.64
2019-03-21T00:45:16.696Z,88.45
2019-03-21T00:46:16.701Z,88.83
2019-03-21T00:47:16.680Z,88.88
2019-03-21T00:48:16.681Z,88.83
2019-03-21T00:49:16.655Z,88.98
2019-03-21T00:50:16.665Z,89.21
2019-03-21T00:51:16.635Z,88.88
2019-03-21T00:52:16.646Z,89.69
2019-03-21T00:53:16.632Z,89.69
2019-03-21T00:54:16.625Z,89.4
2019-03-21T00:55:16.601Z,89.31
2019-03-21T00:56:16.596Z,90.03
2019-03-21T00:57:16.595Z,89.88
2019-03-21T00:58:16.598Z,90.07
2019-03-21T00:59:16.585Z,90.26
2019-03-21T01:00:16.573Z,90.07
2019-03-21T01:01:16.568Z,89.88
2019-03-21T01:02:16.556Z,89.78
2019-03-21T01:03:16.549Z,90.31
2019-03-21T01:04:16.542Z,90.55
2019-03-21T01:05:16.283Z,90.26
2019-03-21T01:06:16.528Z,90.83
2019-03-21T01:07:16.487Z,90.64
2019-03-21T01:08:16.500Z,90.45
2019-03-21T01:09:16.490Z,90.93
2019-03-21T01:10:16.482Z,90.73
2019-03-21T01:11:16.462Z,91.21
2019-03-21T01:12:16.444Z,91.02
2019-03-21T01:13:16.453Z,91.21
2019-03-21T01:14:16.445Z,91.02
2019-03-21T01:15:16.436Z,90.83
2019-03-21T01:16:16.412Z,91.5
2019-03-21T01:17:16.418Z,91.5
2019-03-21T01:18:16.393Z,91.41
2019-03-21T01:19:16.405Z,91.41
2019-03-21T01:20:16.377Z,91.31
2019-03-21T01:21:16.386Z,91.5
2019-03-21T01:22:16.364Z,91.21
2019-03-21T01:23:16.366Z,91.55
2019-03-21T01:24:16.336Z,91.21
2019-03-21T01:25:16.332Z,91.41
2019-03-21T01:26:16.319Z,91.12
2019-03-21T01:27:16.327Z,91.31
2019-03-21T01:28:16.322Z,91.41
2019-03-21T01:29:16.296Z,91.6
2019-03-21T01:30:16.281Z,91.69
2019-03-21T01:31:16.292Z,91.88
2019-03-21T01:32:16.264Z,91.36
2019-03-21T01:33:16.270Z,91.5
2019-03-21T01:34:16.248Z,91.21
2019-03-21T01:35:16.257Z,91.31
2019-03-21T01:36:16.230Z,91.69
2019-03-21T01:37:16.241Z,92.22
2019-03-21T01:38:16.208Z,92.17
2019-03-21T01:39:16.219Z,91.78
2019-03-21T01:40:16.192Z,91.98
2019-03-21T01:41:16.186Z,92.32
2019-03-21T01:42:16.173Z,92.12
2019-03-21T01:43:16.183Z,92.12
2019-03-21T01:44:16.155Z,92.6
2019-03-21T01:45:16.161Z,92.83
2019-03-21T01:46:16.160Z,92.6
2019-03-21T01:47:16.146Z,92.6
2019-03-21T01:48:16.119Z,92.69
2019-03-21T01:49:16.126Z,92.46
2019-03-21T01:50:16.103Z,92.6
2019-03-21T01:51:16.114Z,93.08
2019-03-21T01:52:16.085Z,93.27
2019-03-21T01:53:16.094Z,93.08
2019-03-21T01:54:16.062Z,92.98
2019-03-21T01:55:16.091Z,92.79
2019-03-21T01:56:16.044Z,93.36
2019-03-21T01:57:16.063Z,93.55
2019-03-21T01:58:16.052Z,93.55
2019-03-21T01:59:16.042Z,93.55
2019-03-21T02:00:16.013Z,93.36
2019-03-21T02:01:16.016Z,93.27
2019-03-21T02:02:16.009Z,93.27
2019-03-21T02:03:16.001Z,93.36
2019-03-21T02:04:15.973Z,93.27
2019-03-21T02:05:15.978Z,93.27
2019-03-21T02:06:15.958Z,93.46
2019-03-21T02:07:15.969Z,93.46
2019-03-21T02:08:15.934Z,93.27
2019-03-21T02:09:15.949Z,93.36
2019-03-21T02:10:15.675Z,93.46
2019-03-21T02:11:15.929Z,93.27
2019-03-21T02:12:15.898Z,93.36
2019-03-21T02:13:15.653Z,93.27
2019-03-21T02:14:15.884Z,93.27
2019-03-21T02:15:15.891Z,93.51
2019-03-21T02:16:15.881Z,93.41
2019-03-21T02:17:15.859Z,93.36
2019-03-21T02:18:15.841Z,93.36
2019-03-21T02:19:15.843Z,93.36
2019-03-21T02:20:15.845Z,93.36
2019-03-21T02:21:15.817Z,93.36
2019-03-21T02:22:15.806Z,93.36
2019-03-21T02:23:15.816Z,93.36
2019-03-21T02:24:15.795Z,93.36
2019-03-21T02:25:15.796Z,93.27
2019-03-21T02:26:15.773Z,93.46
2019-03-21T02:27:15.531Z,93.46
2019-03-21T02:28:15.753Z,93.27
2019-03-21T02:29:15.749Z,93.27
2019-03-21T02:30:15.738Z,93.93
2019-03-21T02:31:15.758Z,94.12
2019-03-21T02:32:15.737Z,93.84
2019-03-21T02:33:15.712Z,93.93
2019-03-21T02:34:15.701Z,93.93
2019-03-21T02:35:15.695Z,93.93
2019-03-21T02:36:15.698Z,93.74
2019-03-21T02:37:15.682Z,93.74
2019-03-21T02:38:15.687Z,93.93
2019-03-21T02:39:15.720Z,93.84
2019-03-21T02:40:15.695Z,93.84
2019-03-21T02:41:15.662Z,93.84
2019-03-21T02:42:15.646Z,93.93
2019-03-21T02:43:15.617Z,93.93
2019-03-21T02:44:15.633Z,93.65
2019-03-21T02:45:15.717Z,93.74
2019-03-21T02:46:15.664Z,93.74
2019-03-21T02:47:15.637Z,93.74
2019-03-21T02:48:15.599Z,93.46
2019-03-21T02:49:15.882Z,93.74
2019-03-21T02:50:15.556Z,94.6
2019-03-21T02:51:15.541Z,94.12
2019-03-21T02:52:15.573Z,94.12
2019-03-21T02:53:15.528Z,94.41
2019-03-21T02:54:15.534Z,94.51
2019-03-21T02:55:15.509Z,94.22
2019-03-21T02:56:15.515Z,94.32
2019-03-21T02:57:15.490Z,94.22
2019-03-21T02:58:15.501Z,94.22
2019-03-21T02:59:15.481Z,94.22
2019-03-21T03:00:15.477Z,94.32
2019-03-21T03:01:15.465Z,94.32
2019-03-21T03:02:15.462Z,94.03
2019-03-21T03:03:15.438Z,94.22
2019-03-21T03:04:15.429Z,94.12
2019-03-21T03:05:15.463Z,94.12
2019-03-21T03:06:15.425Z,94.12
2019-03-21T03:07:15.423Z,94.12
2019-03-21T03:08:15.462Z,94.03
2019-03-21T03:09:15.403Z,94.12
2019-03-21T03:10:15.369Z,94.32
2019-03-21T03:11:15.382Z,93.93
2019-03-21T03:12:15.348Z,94.22
2019-03-21T03:13:15.369Z,94.22
2019-03-21T03:14:15.351Z,94.22
2019-03-21T03:15:25.183Z,94.32
2019-03-21T03:16:15.334Z,94.12
2019-03-21T03:17:15.340Z,94.03
2019-03-21T03:18:15.315Z,94.32
2019-03-21T03:19:15.287Z,94.32
2019-03-21T03:20:15.278Z,94.03
2019-03-21T03:21:15.281Z,94.12
2019-03-21T03:22:15.276Z,94.22
2019-03-21T03:23:15.269Z,94.32
2019-03-21T03:24:15.240Z,94.12
2019-03-21T03:25:15.266Z,94.03
2019-03-21T03:26:15.230Z,93.93
2019-03-21T03:27:15.236Z,94.03
2019-03-21T03:28:15.226Z,94.12
2019-03-21T03:29:15.216Z,94.03
2019-03-21T03:30:15.190Z,94.03
2019-03-21T03:31:15.204Z,94.12
2019-03-21T03:32:15.179Z,94.12
2019-03-21T03:33:15.283Z,94.32
2019-03-21T03:34:15.158Z,94.22
2019-03-21T03:35:15.167Z,94.32
2019-03-21T03:36:15.146Z,94.22
2019-03-21T03:37:15.127Z,94.32
2019-03-21T03:38:15.109Z,94.51
2019-03-21T03:39:15.134Z,94.51
2019-03-21T03:40:15.140Z,94.32
2019-03-21T03:41:15.101Z,94.32
2019-03-21T03:42:15.086Z,94.41
2019-03-21T03:43:15.084Z,93.84
2019-03-21T03:44:15.068Z,93.93
2019-03-21T03:45:15.068Z,93.74
2019-03-21T03:46:15.041Z,93.84
2019-03-21T03:47:15.055Z,93.93
2019-03-21T03:48:15.023Z,93.93
2019-03-21T03:49:15.014Z,93.93
2019-03-21T03:50:15.007Z,93.93
2019-03-21T03:51:15.013Z,93.93
2019-03-21T03:52:15.000Z,93.74
2019-03-21T03:53:14.738Z,93.84
2019-03-21T03:54:14.963Z,93.93
2019-03-21T03:55:14.955Z,93.55
2019-03-21T03:56:14.965Z,93.74
2019-03-21T03:57:14.947Z,93.84
2019-03-21T03:58:14.955Z,93.74
2019-03-21T03:59:14.916Z,93.65
2019-03-21T04:00:14.925Z,93.84
2019-03-21T04:01:14.908Z,93.65
2019-03-21T04:02:14.913Z,93.74
2019-03-21T04:03:14.883Z,93.84
2019-03-21T04:04:14.890Z,93.84
2019-03-21T04:05:14.867Z,93.84
2019-03-21T04:06:14.859Z,93.55
2019-03-21T04:07:14.861Z,93.27
2019-03-21T04:08:14.852Z,93.17
2019-03-21T04:09:14.835Z,93.27
2019-03-21T04:10:14.816Z,93.27
2019-03-21T04:11:14.807Z,93.27
2019-03-21T04:12:14.820Z,93.46
2019-03-21T04:13:14.796Z,93.65
2019-03-21T04:14:14.806Z,93.27
2019-03-21T04:15:14.808Z,94.12
2019-03-21T04:16:14.782Z,93.36
2019-03-21T04:17:14.754Z,93.46
2019-03-21T04:18:14.759Z,93.46
2019-03-21T04:19:14.730Z,94.03
2019-03-21T04:20:14.744Z,93.93
2019-03-21T04:21:14.734Z,93.84
2019-03-21T04:22:14.722Z,93.55
2019-03-21T04:23:14.697Z,93.74
2019-03-21T04:24:14.688Z,93.93
2019-03-21T04:25:14.691Z,93.93
2019-03-21T04:26:14.689Z,93.84
2019-03-21T04:27:14.678Z,93.55
2019-03-21T04:28:14.651Z,93.93
2019-03-21T04:29:14.654Z,93.74
2019-03-21T04:30:14.651Z,93.74
2019-03-21T04:31:14.631Z,93.93
2019-03-21T04:32:14.632Z,93.93
2019-03-21T04:33:14.606Z,93.84
2019-03-21T04:34:14.625Z,93.27
2019-03-21T04:35:14.584Z,93.17
2019-03-21T04:36:14.599Z,93.93
2019-03-21T04:37:14.588Z,93.93
2019-03-21T04:38:14.332Z,93.84
2019-03-21T04:39:14.548Z,93.93
2019-03-21T04:40:14.537Z,93.84
2019-03-21T04:41:14.553Z,93.74
2019-03-21T04:42:14.539Z,93.74
2019-03-21T04:43:14.526Z,93.84
2019-03-21T04:44:14.507Z,93.55
2019-03-21T04:45:14.507Z,93.74
2019-03-21T04:46:14.484Z,93.74
2019-03-21T04:47:14.487Z,93.55
2019-03-21T04:48:14.459Z,93.27
2019-03-21T04:49:14.468Z,93.46
2019-03-21T04:50:14.254Z,93.27
2019-03-21T04:51:14.450Z,93.08
2019-03-21T04:52:14.426Z,93.17
2019-03-21T04:53:14.418Z,93.36
2019-03-21T04:54:14.406Z,93.65
2019-03-21T04:55:14.417Z,93.65
2019-03-21T04:56:14.388Z,93.65
2019-03-21T04:57:14.396Z,93.55
2019-03-21T04:58:14.390Z,93.46
2019-03-21T04:59:14.386Z,93.27
2019-03-21T05:00:14.350Z,93.65
2019-03-21T05:01:14.360Z,93.55
2019-03-21T05:02:14.383Z,93.08
2019-03-21T05:03:14.362Z,93.36
2019-03-21T05:04:14.314Z,93.74
2019-03-21T05:05:14.322Z,93.84
2019-03-21T05:06:14.295Z,93.93
2019-03-21T05:07:14.382Z,93.84
2019-03-21T05:08:14.278Z,93.84
2019-03-21T05:09:14.279Z,93.93
2019-03-21T05:10:14.274Z,93.93
2019-03-21T05:11:14.246Z,93.93
2019-03-21T05:12:14.237Z,93.84
2019-03-21T05:13:14.243Z,93.74
2019-03-21T05:14:14.276Z,93.74
2019-03-21T05:15:14.227Z,93.74
2019-03-21T05:16:17.331Z,93.55
2019-03-21T05:17:14.204Z,93.65
2019-03-21T05:18:14.182Z,94.03
2019-03-21T05:19:14.193Z,94.12
2019-03-21T05:20:16.707Z,94.03
2019-03-21T05:21:14.167Z,94.6
2019-03-21T05:22:14.163Z,94.51
2019-03-21T05:23:14.136Z,94.41
2019-03-21T05:24:14.143Z,94.51
2019-03-21T05:25:14.135Z,94.22
2019-03-21T05:26:14.125Z,94.22
2019-03-21T05:27:14.103Z,94.03
2019-03-21T05:28:14.092Z,94.41
2019-03-21T05:29:14.096Z,94.12
2019-03-21T05:30:14.089Z,94.22
2019-03-21T05:31:14.081Z,94.32
2019-03-21T05:32:14.054Z,94.7
2019-03-21T05:33:14.056Z,94.6
2019-03-21T05:34:14.034Z,94.6
2019-03-21T05:35:14.099Z,94.22
2019-03-21T05:36:14.016Z,94.51
2019-03-21T05:37:14.024Z,94.98
2019-03-21T05:38:14.003Z,94.79
2019-03-21T05:39:14.006Z,94.89
2019-03-21T05:40:13.979Z,95.08
2019-03-21T05:41:13.976Z,94.98
2019-03-21T05:42:13.960Z,94.79
2019-03-21T05:43:13.972Z,95.08
2019-03-21T05:44:13.959Z,94.89
2019-03-21T05:45:13.938Z,94.84
2019-03-21T05:46:13.922Z,95.03
2019-03-21T05:47:13.932Z,94.65
2019-03-21T05:48:13.908Z,94.79
2019-03-21T05:49:13.909Z,95.12
2019-03-21T05:50:14.999Z,95.79
2019-03-21T05:51:13.896Z,95.03
2019-03-21T05:52:13.868Z,95.79
2019-03-21T05:53:13.876Z,95.79
2019-03-21T05:54:13.853Z,95.7
2019-03-21T05:55:13.861Z,95.61
2019-03-21T05:56:13.831Z,95.51
2019-03-21T05:57:13.847Z,95.61
2019-03-21T05:58:13.814Z,95.61
2019-03-21T05:59:13.823Z,95.51
2019-03-21T06:00:13.815Z,95.61
2019-03-21T06:01:13.790Z,95.12
2019-03-21T06:02:13.785Z,95.61
2019-03-21T06:03:13.768Z,95.79
2019-03-21T06:04:13.779Z,95.32
2019-03-21T06:05:13.754Z,95.32
2019-03-21T06:06:13.759Z,96.08
2019-03-21T06:07:13.732Z,95.98
2019-03-21T06:08:13.740Z,95.98
2019-03-21T06:09:13.716Z,95.51
2019-03-21T06:10:13.725Z,95.98
2019-03-21T06:11:13.700Z,95.79
2019-03-21T06:12:13.705Z,96.08
2019-03-21T06:13:13.684Z,96.08
2019-03-21T06:14:13.670Z,95.41
2019-03-21T06:15:13.676Z,95.32
2019-03-21T06:16:13.676Z,95.61
2019-03-21T06:17:13.648Z,95.61
2019-03-21T06:18:13.636Z,95.98
2019-03-21T06:19:13.626Z,95.61
2019-03-21T06:20:13.633Z,95.7
2019-03-21T06:21:13.609Z,95.7
2019-03-21T06:22:13.613Z,95.22
2019-03-21T06:23:13.585Z,95.03
2019-03-21T06:24:13.596Z,95.12
2019-03-21T06:25:15.833Z,95.12
2019-03-21T06:26:13.580Z,94.74
2019-03-21T06:27:17.241Z,94.93
2019-03-21T06:28:13.562Z,94.84
2019-03-21T06:29:13.549Z,95.32
2019-03-21T06:30:13.542Z,94.7
2019-03-21T06:31:13.516Z,94.51
2019-03-21T06:32:15.530Z,94.31
2019-03-21T06:33:13.513Z,94.12
2019-03-21T06:34:13.508Z,94.6
2019-03-21T06:35:13.507Z,94.22
2019-03-21T06:36:13.475Z,94.51
2019-03-21T06:37:13.480Z,94.51
2019-03-21T06:38:13.473Z,94.6
2019-03-21T06:39:13.452Z,94.6
2019-03-21T06:40:13.463Z,94.31
2019-03-21T06:41:13.429Z,94.03
2019-03-21T06:42:13.437Z,93.93
2019-03-21T06:43:13.413Z,94.03
2019-03-21T06:44:13.419Z,93.93
2019-03-21T06:45:13.408Z,93.26
2019-03-21T06:46:13.403Z,93.36
2019-03-21T06:47:13.380Z,93.74
2019-03-21T06:48:13.375Z,93.55
2019-03-21T06:49:13.379Z,93.55
2019-03-21T06:50:13.409Z,93.55
2019-03-21T06:51:13.346Z,93.65
2019-03-21T06:52:13.350Z,93.26
2019-03-21T06:53:13.331Z,93.26
2019-03-21T06:54:13.334Z,92.69
2019-03-21T06:55:13.313Z,92.97
2019-03-21T06:56:13.318Z,92.97
2019-03-21T06:57:13.291Z,93.07
2019-03-21T06:58:13.302Z,92.97
2019-03-21T06:59:13.289Z,92.5
2019-03-21T07:00:13.283Z,92.41
2019-03-21T07:01:13.269Z,92.69
2019-03-21T07:02:13.267Z,92.5
2019-03-21T07:03:13.238Z,92.07
2019-03-21T07:04:13.247Z,92.16
2019-03-21T07:05:13.236Z,91.59
2019-03-21T07:06:13.213Z,92.12
2019-03-21T07:07:13.208Z,92.02
2019-03-21T07:08:13.214Z,91.36
2019-03-21T07:09:13.199Z,91.64
2019-03-21T07:10:13.196Z,91.83
2019-03-21T07:11:13.172Z,91.59
2019-03-21T07:12:13.184Z,91.3
2019-03-21T07:13:13.156Z,91.55
2019-03-21T07:14:13.164Z,91.64
2019-03-21T07:15:13.145Z,91.55
2019-03-21T07:16:13.149Z,91.78
2019-03-21T07:17:13.156Z,91.69
2019-03-21T07:18:13.131Z,91.3
2019-03-21T07:19:13.104Z,91.3
2019-03-21T07:20:13.101Z,91.21
2019-03-21T07:21:13.102Z,91.3
2019-03-21T07:22:14.928Z,91.5
2019-03-21T07:23:13.089Z,90.73
2019-03-21T07:24:12.823Z,90.73
2019-03-21T07:25:13.071Z,91.02
2019-03-21T07:26:13.080Z,91.11
2019-03-21T07:27:13.058Z,91.02
2019-03-21T07:28:13.031Z,91.4
2019-03-21T07:29:13.035Z,91.11
2019-03-21T07:30:13.034Z,91.21
2019-03-21T07:31:13.925Z,91.21
2019-03-21T07:32:13.016Z,90.83
2019-03-21T07:33:13.004Z,91.21
2019-03-21T07:34:13.002Z,90.92
2019-03-21T07:35:12.974Z,91.16
2019-03-21T07:36:12.970Z,90.78
2019-03-21T07:37:12.977Z,90.78
2019-03-21T07:38:12.970Z,90.3
2019-03-21T07:39:12.968Z,90.49
2019-03-21T07:40:12.936Z,90.11
2019-03-21T07:41:12.943Z,89.92
2019-03-21T07:42:12.921Z,89.92
2019-03-21T07:43:12.938Z,89.2
2019-03-21T07:44:12.906Z,89.44
2019-03-21T07:45:12.915Z,89.34
2019-03-21T07:46:12.890Z,89.44
2019-03-21T07:47:15.547Z,89.58
2019-03-21T07:48:12.875Z,89.58
2019-03-21T07:49:12.871Z,89.39
2019-03-21T07:50:12.864Z,89.67
2019-03-21T07:51:12.871Z,89.2
2019-03-21T07:52:12.616Z,89.1
2019-03-21T07:53:12.843Z,89.06
2019-03-21T07:54:12.830Z,89.01
2019-03-21T07:55:12.839Z,89.1
2019-03-21T07:56:12.813Z,89.1
2019-03-21T07:57:12.819Z,89.29
2019-03-21T07:58:12.799Z,88.81
2019-03-21T07:59:12.819Z,88.62
2019-03-21T08:00:12.784Z,88.34
2019-03-21T08:01:12.793Z,88.62
2019-03-21T08:02:12.770Z,88.53
2019-03-21T08:03:12.779Z,88.24
2019-03-21T08:04:12.756Z,88.81
2019-03-21T08:05:12.753Z,88.24
2019-03-21T08:06:12.502Z,88.53
2019-03-21T08:07:12.501Z,88.43
2019-03-21T08:08:12.739Z,88.53
2019-03-21T08:09:12.720Z,88.72
2019-03-21T08:10:12.710Z,88.43
2019-03-21T08:11:12.701Z,88.62
2019-03-21T08:12:12.712Z,88.72
2019-03-21T08:13:12.691Z,88.62
2019-03-21T08:14:12.461Z,88.72
2019-03-21T08:15:12.670Z,88.81
2019-03-21T08:16:12.687Z,88.62
2019-03-21T08:17:12.662Z,88.53
2019-03-21T08:18:12.667Z,88.53
2019-03-21T08:19:12.642Z,88.72
2019-03-21T08:20:12.652Z,88.72
2019-03-21T08:21:12.630Z,88.53
2019-03-21T08:22:12.682Z,88.43
2019-03-21T08:23:12.632Z,88.43
2019-03-21T08:24:12.622Z,87.62
2019-03-21T08:25:12.602Z,87.71
2019-03-21T08:26:12.592Z,87.43
2019-03-21T08:27:12.587Z,87.71
2019-03-21T08:28:12.595Z,87.14
2019-03-21T08:29:12.577Z,87.14
2019-03-21T08:30:12.580Z,87.23
2019-03-21T08:31:12.556Z,86.57
2019-03-21T08:32:12.567Z,86.85
2019-03-21T08:33:12.546Z,86.94
2019-03-21T08:34:12.534Z,86.99
2019-03-21T08:35:12.547Z,86.28
2019-03-21T08:36:12.523Z,85.75
2019-03-21T08:37:12.519Z,85.71
2019-03-21T08:38:12.507Z,85.84
2019-03-21T08:39:12.520Z,86.37
2019-03-21T08:40:12.512Z,86.18
2019-03-21T08:41:12.492Z,85.99
2019-03-21T08:42:12.480Z,86.37
2019-03-21T08:43:12.477Z,85.94
2019-03-21T08:44:12.484Z,86.18
2019-03-21T08:45:12.463Z,85.75
2019-03-21T08:46:12.455Z,86.04
2019-03-21T08:47:12.469Z,86.32
2019-03-21T08:48:12.440Z,85.75
2019-03-21T08:49:12.450Z,85.94
2019-03-21T08:50:12.430Z,85.94
2019-03-21T08:51:12.445Z,85.55
2019-03-21T08:52:12.412Z,85.75
2019-03-21T08:53:12.414Z,85.55
2019-03-21T08:54:12.402Z,85.94
2019-03-21T08:55:12.413Z,86.04
2019-03-21T08:56:12.408Z,86.13
2019-03-21T08:57:12.384Z,85.84
2019-03-21T08:58:12.374Z,85.55
2019-03-21T08:59:12.371Z,85.94
2019-03-21T09:00:12.377Z,86.13
2019-03-21T09:01:12.359Z,85.65
2019-03-21T09:02:12.365Z,85.94
2019-03-21T09:03:12.338Z,85.94
2019-03-21T09:04:12.353Z,85.17
2019-03-21T09:05:12.328Z,86.04
2019-03-21T09:06:12.340Z,86.13
2019-03-21T09:07:12.314Z,85.98
2019-03-21T09:08:12.331Z,85.12
2019-03-21T09:09:12.319Z,85.41
2019-03-21T09:10:12.321Z,84.92
2019-03-21T09:11:12.302Z,84.83
2019-03-21T09:12:12.303Z,85.41
2019-03-21T09:13:12.281Z,85.02
2019-03-21T09:14:12.275Z,85.12
2019-03-21T09:15:12.023Z,84.92
2019-03-21T09:16:13.420Z,84.83
2019-03-21T09:17:12.256Z,84.55
2019-03-21T09:18:12.266Z,84.74
2019-03-21T09:19:12.240Z,84.74
2019-03-21T09:20:12.250Z,84.64
2019-03-21T09:21:22.118Z,84.55
2019-03-21T09:22:12.238Z,84.55
2019-03-21T09:23:12.218Z,84.74
2019-03-21T09:24:12.227Z,84.45
2019-03-21T09:25:12.216Z,84.92
2019-03-21T09:26:12.214Z,84.83
2019-03-21T09:27:12.192Z,84.74
2019-03-21T09:28:14.112Z,84.35
2019-03-21T09:29:12.191Z,84.55
2019-03-21T09:30:12.190Z,84.35
2019-03-21T09:31:12.187Z,84.64
2019-03-21T09:32:12.186Z,84.64
2019-03-21T09:33:12.170Z,84.58
2019-03-21T09:34:12.151Z,83.82
2019-03-21T09:35:14.924Z,83.92
2019-03-21T09:36:12.138Z,83.92
2019-03-21T09:37:12.143Z,83.82
2019-03-21T09:38:12.153Z,83.92
2019-03-21T09:39:11.875Z,83.92
2019-03-21T09:40:12.130Z,84.11
2019-03-21T09:41:12.125Z,83.63
2019-03-21T09:42:12.118Z,83.34
2019-03-21T09:43:12.093Z,82.86
2019-03-21T09:44:12.088Z,83.15
2019-03-21T09:45:11.848Z,82.96
2019-03-21T09:46:12.095Z,82.67
2019-03-21T09:47:12.090Z,82.52
2019-03-21T09:48:12.068Z,82.52
2019-03-21T09:49:12.078Z,82.32
2019-03-21T09:50:12.056Z,82.52
2019-03-21T09:51:12.074Z,82.32
2019-03-21T09:52:12.043Z,82.23
2019-03-21T09:53:12.054Z,81.66
2019-03-21T09:54:12.480Z,81.85
2019-03-21T09:55:12.044Z,81.51
2019-03-21T09:56:12.021Z,81.12
2019-03-21T09:57:12.021Z,81.37
2019-03-21T09:58:12.009Z,81.27
2019-03-21T09:59:12.021Z,80.99
2019-03-21T10:00:12.018Z,80.83
2019-03-21T10:01:11.998Z,80.79
2019-03-21T10:02:11.988Z,81.18
2019-03-21T10:03:12.010Z,81.18
2019-03-21T10:04:11.978Z,81.08
2019-03-21T10:05:11.984Z,81.46
2019-03-21T10:06:12.268Z,81.08
2019-03-21T10:07:11.980Z,81.18
2019-03-21T10:08:11.956Z,81.75
2019-03-21T10:09:11.966Z,81.95
2019-03-21T10:10:11.954Z,81.85
2019-03-21T10:11:11.958Z,82.42
2019-03-21T10:12:11.937Z,81.71
2019-03-21T10:13:11.930Z,82.09
2019-03-21T10:14:11.921Z,82.09
2019-03-21T10:15:11.935Z,82.38
2019-03-21T10:16:11.909Z,81.9
2019-03-21T10:17:11.917Z,82.38
2019-03-21T10:18:11.919Z,82.38
2019-03-21T10:19:11.912Z,82.48
2019-03-21T10:20:11.886Z,82.57
2019-03-21T10:21:11.898Z,82.29
2019-03-21T10:22:11.903Z,81.75
2019-03-21T10:23:11.888Z,81.56
2019-03-21T10:24:11.867Z,81.85
2019-03-21T10:25:11.876Z,81.85
2019-03-21T10:26:11.857Z,81.75
2019-03-21T10:27:11.863Z,81.75
2019-03-21T10:28:11.841Z,81.85
2019-03-21T10:29:11.850Z,81.85
2019-03-21T10:30:11.848Z,82.04
2019-03-21T10:31:11.826Z,81.37
2019-03-21T10:32:16.809Z,81.95
2019-03-21T10:33:11.831Z,81.56
2019-03-21T10:34:11.826Z,82.04
2019-03-21T10:35:11.822Z,82.14
2019-03-21T10:36:11.799Z,81.9
2019-03-21T10:37:11.807Z,81.81
2019-03-21T10:38:11.787Z,82.04
2019-03-21T10:39:11.798Z,81.56
2019-03-21T10:40:11.779Z,82.23
2019-03-21T10:41:11.788Z,81.85
2019-03-21T10:42:11.766Z,82.09
2019-03-21T10:43:13.046Z,82.09
2019-03-21T10:44:11.750Z,81.9
2019-03-21T10:45:11.753Z,81.71
2019-03-21T10:46:11.740Z,82.09
2019-03-21T10:47:11.751Z,81.81
2019-03-21T10:48:11.746Z,82.19
2019-03-21T10:49:11.728Z,82.09
2019-03-21T10:50:11.732Z,82.38
2019-03-21T10:51:11.712Z,82.09
2019-03-21T10:52:11.722Z,82.38
2019-03-21T10:53:11.705Z,82.57
2019-03-21T10:54:11.692Z,82.38
2019-03-21T10:55:11.703Z,82.57
2019-03-21T10:56:11.680Z,82.67
2019-03-21T10:57:11.692Z,82.76
2019-03-21T10:58:11.669Z,83.25
2019-03-21T10:59:11.679Z,82.96
2019-03-21T11:00:11.655Z,82.19
2019-03-21T11:01:11.694Z,82.29
2019-03-21T11:02:11.649Z,82.48
2019-03-21T11:03:11.662Z,82.29
2019-03-21T11:04:11.732Z,82.29
2019-03-21T11:05:11.629Z,82.48
2019-03-21T11:06:11.384Z,82.19
2019-03-21T11:07:11.615Z,82.48
2019-03-21T11:08:11.629Z,82.38
2019-03-21T11:09:11.606Z,82.38
2019-03-21T11:10:11.614Z,82.38
2019-03-21T11:11:11.589Z,82.19
2019-03-21T11:12:11.604Z,81.81
2019-03-21T11:13:11.584Z,81.9
2019-03-21T11:14:11.594Z,82
2019-03-21T11:15:11.569Z,82
2019-03-21T11:16:11.583Z,82.09
2019-03-21T11:17:11.577Z,81.95
2019-03-21T11:18:11.570Z,81.95
2019-03-21T11:19:11.613Z,82.04
2019-03-21T11:20:11.554Z,81.56
2019-03-21T11:21:11.539Z,81.66
2019-03-21T11:22:11.525Z,80.99
2019-03-21T11:23:11.525Z,81.37
2019-03-21T11:24:11.534Z,81.37
2019-03-21T11:25:11.517Z,80.79
2019-03-21T11:26:11.519Z,80.6
2019-03-21T11:27:11.496Z,80.79
2019-03-21T11:28:11.524Z,80.79
2019-03-21T11:29:11.490Z,80.6
2019-03-21T11:30:18.473Z,80.32
2019-03-21T11:31:11.477Z,80.51
2019-03-21T11:32:11.494Z,80.7
2019-03-21T11:33:11.480Z,80.7
2019-03-21T11:34:11.476Z,80.51
2019-03-21T11:35:11.454Z,80.51
2019-03-21T11:36:11.451Z,80.6
2019-03-21T11:37:11.456Z,80.7
2019-03-21T11:38:11.458Z,80.7
2019-03-21T11:39:11.453Z,80.83
2019-03-21T11:40:11.425Z,80.64
2019-03-21T11:41:11.449Z,80.41
2019-03-21T11:42:11.457Z,80.83
2019-03-21T11:43:11.459Z,80.55
2019-03-21T11:44:11.418Z,79.68
2019-03-21T11:45:11.455Z,79.88
2019-03-21T11:46:11.416Z,80.79
2019-03-21T11:47:11.389Z,80.12
2019-03-21T11:48:11.414Z,80.83
2019-03-21T11:49:11.423Z,80.74
2019-03-21T11:50:11.391Z,80.6
2019-03-21T11:51:11.368Z,80.51
2019-03-21T11:52:20.578Z,80.51
2019-03-21T11:53:11.373Z,80.79
2019-03-21T11:54:11.371Z,80.7
2019-03-21T11:55:11.379Z,80.7
2019-03-21T11:56:13.022Z,80.89
2019-03-21T11:57:11.351Z,80.6
2019-03-21T11:58:11.347Z,80.6
2019-03-21T11:59:11.323Z,80.6
2019-03-21T12:00:11.337Z,80.7
2019-03-21T12:01:11.312Z,81.18
2019-03-21T12:02:11.346Z,80.51
2019-03-21T12:03:11.308Z,80.99
2019-03-21T12:04:11.317Z,80.41
2019-03-21T12:05:11.308Z,80.41
2019-03-21T12:06:11.309Z,80.41
2019-03-21T12:07:11.280Z,80.6
2019-03-21T12:08:11.274Z,80.51
2019-03-21T12:09:11.283Z,81.46
2019-03-21T12:10:11.281Z,80.6
2019-03-21T12:11:11.260Z,80.89
2019-03-21T12:12:11.277Z,81.08
2019-03-21T12:13:11.286Z,81.18
2019-03-21T12:14:11.260Z,81.18
2019-03-21T12:15:11.240Z,80.79
2019-03-21T12:16:11.247Z,80.79
2019-03-21T12:17:12.812Z,80.99
2019-03-21T12:18:11.240Z,81.08
2019-03-21T12:19:11.216Z,80.89
2019-03-21T12:20:11.226Z,80.79
2019-03-21T12:21:11.216Z,81.18
2019-03-21T12:22:11.239Z,81.46
2019-03-21T12:23:11.194Z,81.08
2019-03-21T12:24:11.256Z,80.99
2019-03-21T12:25:11.194Z,80.99
2019-03-21T12:26:11.195Z,81.18
2019-03-21T12:27:11.189Z,80.89
2019-03-21T12:28:11.167Z,80.99
2019-03-21T12:29:11.172Z,81.18
2019-03-21T12:30:11.155Z,80.89
2019-03-21T12:31:11.164Z,81.37
2019-03-21T12:32:11.142Z,81.13
2019-03-21T12:33:11.161Z,81.33
2019-03-21T12:34:11.130Z,81.37
2019-03-21T12:35:11.146Z,81.46
2019-03-21T12:36:11.125Z,80.6
2019-03-21T12:37:11.126Z,81.08
2019-03-21T12:38:11.134Z,80.41
2019-03-21T12:39:11.147Z,80.6
2019-03-21T12:40:11.098Z,81.18
2019-03-21T12:41:11.104Z,81.04
2019-03-21T12:42:11.104Z,80.76
2019-03-21T12:43:11.099Z,81.13
2019-03-21T12:44:11.074Z,81.13
2019-03-21T12:45:11.085Z,81.23
2019-03-21T12:46:11.064Z,81.18
2019-03-21T12:47:11.074Z,81.18
2019-03-21T12:48:11.052Z,81.27
2019-03-21T12:49:11.064Z,80.99
2019-03-21T12:50:11.041Z,81.08
2019-03-21T12:51:11.300Z,80.89
2019-03-21T12:52:11.043Z,80.51
2019-03-21T12:53:11.031Z,80.51
2019-03-21T12:54:11.018Z,80.7